createdAt,value
2018-06-20T00:00:15.405Z,19.80
2018-06-20T00:05:10.575Z,19.70
2018-06-20T00:07:38.149Z,19.70
2018-06-20T00:10:05.733Z,19.80
2018-06-20T00:12:33.536Z,19.80
2018-06-20T00:15:01.160Z,19.90
2018-06-20T00:17:28.694Z,19.90
2018-06-20T00:19:56.267Z,19.90
2018-06-20T00:22:23.950Z,19.90
2018-06-20T00:24:51.509Z,19.80
2018-06-20T00:27:19.081Z,19.90
2018-06-20T00:29:47.142Z,20.00
2018-06-20T00:32:14.735Z,19.90
2018-06-20T00:34:42.330Z,19.90
2018-06-20T00:37:09.925Z,19.80
2018-06-20T00:39:37.511Z,19.80
2018-06-20T00:42:05.339Z,19.70
2018-06-20T00:44:32.916Z,19.80
2018-06-20T00:47:00.469Z,19.80
2018-06-20T00:49:28.031Z,19.70
2018-06-20T00:54:23.215Z,19.80
2018-06-20T00:56:50.767Z,19.80
2018-06-20T00:59:18.304Z,19.80
2018-06-20T01:01:45.940Z,19.80
2018-06-20T01:04:13.528Z,19.80
2018-06-20T01:06:41.116Z,19.80
2018-06-20T01:09:09.659Z,19.80
2018-06-20T01:11:37.947Z,19.80
2018-06-20T01:16:33.138Z,20.00
2018-06-20T01:19:00.695Z,20.00
2018-06-20T01:21:28.226Z,19.90
2018-06-20T01:23:55.752Z,19.90
2018-06-20T01:26:23.354Z,20.00
2018-06-20T01:28:50.938Z,20.10
2018-06-20T01:31:18.491Z,20.00
2018-06-20T01:33:46.066Z,20.10
2018-06-20T01:36:13.656Z,20.00
2018-06-20T01:38:41.218Z,20.10
2018-06-20T01:41:08.792Z,20.00
2018-06-20T01:43:36.351Z,20.00
2018-06-20T01:46:03.914Z,19.90
2018-06-20T01:48:31.451Z,20.00
2018-06-20T01:50:59.088Z,20.00
2018-06-20T01:53:26.701Z,20.00
2018-06-20T01:55:54.241Z,20.00
2018-06-20T01:58:22.501Z,20.00
2018-06-20T02:00:50.043Z,20.00
2018-06-20T02:03:17.641Z,20.00
2018-06-20T02:05:45.977Z,20.00
2018-06-20T02:08:13.533Z,20.00
2018-06-20T02:10:41.087Z,20.00
2018-06-20T02:13:08.627Z,19.90
2018-06-20T02:15:36.165Z,19.90
2018-06-20T02:18:03.730Z,19.90
2018-06-20T02:20:31.263Z,19.90
2018-06-20T02:22:58.806Z,19.90
2018-06-20T02:25:26.386Z,19.90
2018-06-20T02:27:53.966Z,19.90
2018-06-20T02:30:21.518Z,19.90
2018-06-20T02:32:49.099Z,19.90
2018-06-20T02:35:16.622Z,19.90
2018-06-20T02:37:44.183Z,19.90
2018-06-20T02:40:11.936Z,19.80
2018-06-20T02:42:39.459Z,19.80
2018-06-20T02:45:07.878Z,19.80
2018-06-20T02:47:41.382Z,19.90
2018-06-20T02:50:10.266Z,19.90
2018-06-20T02:52:38.090Z,19.80
2018-06-20T02:55:05.651Z,19.80
2018-06-20T02:57:33.193Z,19.80
2018-06-20T03:00:01.044Z,19.80
2018-06-20T03:02:28.641Z,19.80
2018-06-20T03:04:56.166Z,19.80
2018-06-20T03:07:23.762Z,19.80
2018-06-20T03:09:51.381Z,19.90
2018-06-20T03:12:18.970Z,19.90
2018-06-20T03:14:46.527Z,19.80
2018-06-20T03:17:14.087Z,19.90
2018-06-20T03:19:41.646Z,19.80
2018-06-20T03:22:09.169Z,19.90
2018-06-20T03:24:36.722Z,19.90
2018-06-20T03:27:04.349Z,19.90
2018-06-20T03:29:31.881Z,19.80
2018-06-20T03:31:59.428Z,19.70
2018-06-20T03:34:26.993Z,19.70
2018-06-20T03:36:54.708Z,19.80
2018-06-20T03:39:22.320Z,19.80
2018-06-20T03:41:49.859Z,19.90
2018-06-20T03:44:17.456Z,20.00
2018-06-20T03:46:45.021Z,20.20
2018-06-20T03:49:12.645Z,20.00
2018-06-20T03:51:40.236Z,20.00
2018-06-20T03:54:07.814Z,20.00
2018-06-20T03:56:35.403Z,20.00
2018-06-20T03:59:03.086Z,20.10
2018-06-20T04:01:30.668Z,20.20
2018-06-20T04:03:58.257Z,20.30
2018-06-20T04:06:25.840Z,20.30
2018-06-20T04:08:53.439Z,20.40
2018-06-20T04:11:21.077Z,20.40
2018-06-20T04:13:48.970Z,20.30
2018-06-20T04:16:16.523Z,20.40
2018-06-20T04:18:44.499Z,20.40
2018-06-20T04:21:13.149Z,20.50
2018-06-20T04:23:40.747Z,20.50
2018-06-20T04:26:09.525Z,20.70
2018-06-20T04:28:37.325Z,20.80
2018-06-20T04:31:05.643Z,20.80
2018-06-20T04:33:34.047Z,20.80
2018-06-20T04:36:01.644Z,20.80
2018-06-20T04:38:29.286Z,20.70
2018-06-20T04:40:57.443Z,20.70
2018-06-20T04:43:25.199Z,20.90
2018-06-20T04:45:52.750Z,20.90
2018-06-20T04:48:20.353Z,21.10
2018-06-20T04:50:47.926Z,21.10
2018-06-20T04:53:15.983Z,21.30
2018-06-20T04:55:43.654Z,21.40
2018-06-20T04:58:11.307Z,21.20
2018-06-20T05:00:38.968Z,21.40
2018-06-20T05:03:06.510Z,21.50
2018-06-20T05:05:34.058Z,21.50
2018-06-20T05:08:01.660Z,21.50
2018-06-20T05:10:29.192Z,21.70
2018-06-20T05:12:56.757Z,21.50
2018-06-20T05:15:24.658Z,21.60
2018-06-20T05:17:52.276Z,21.60
2018-06-20T05:20:19.908Z,21.80
2018-06-20T05:22:47.427Z,22.00
2018-06-20T05:25:14.996Z,21.90
2018-06-20T05:27:42.640Z,22.10
2018-06-20T05:30:10.191Z,22.00
2018-06-20T05:32:37.743Z,21.70
2018-06-20T05:35:05.361Z,21.70
2018-06-20T05:37:32.934Z,21.60
2018-06-20T05:40:00.622Z,21.80
2018-06-20T05:42:28.179Z,22.20
2018-06-20T05:44:55.760Z,22.20
2018-06-20T05:47:23.338Z,22.10
2018-06-20T05:49:50.891Z,22.20
2018-06-20T05:52:18.490Z,22.00
2018-06-20T05:54:46.074Z,22.10
2018-06-20T05:57:13.676Z,22.20
2018-06-20T05:59:41.293Z,22.30
2018-06-20T06:02:08.897Z,22.40
2018-06-20T06:04:36.581Z,22.10
2018-06-20T06:07:04.788Z,22.50
2018-06-20T06:12:00.176Z,22.60
2018-06-20T06:14:27.809Z,22.60
2018-06-20T06:16:56.005Z,22.90
2018-06-20T06:19:23.569Z,23.20
2018-06-20T06:21:51.165Z,22.80
2018-06-20T06:24:18.709Z,22.80
2018-06-20T06:26:46.249Z,23.00
2018-06-20T06:29:13.801Z,22.50
2018-06-20T06:31:41.463Z,22.30
2018-06-20T06:34:09.147Z,22.60
2018-06-20T06:36:36.736Z,23.20
2018-06-20T06:39:11.334Z,23.70
2018-06-20T06:41:39.157Z,24.00
2018-06-20T06:44:06.868Z,24.30
2018-06-20T06:46:34.684Z,24.60
2018-06-20T06:49:02.436Z,24.90
2018-06-20T06:51:30.210Z,25.20
2018-06-20T06:53:57.773Z,24.90
2018-06-20T06:56:26.741Z,25.20
2018-06-20T06:58:54.253Z,24.70
2018-06-20T07:01:22.871Z,24.90
2018-06-20T07:03:50.386Z,24.70
2018-06-20T07:06:17.927Z,24.90
2018-06-20T07:08:45.491Z,25.30
2018-06-20T07:11:13.047Z,25.10
2018-06-20T07:13:40.718Z,25.20
2018-06-20T07:16:08.297Z,25.30
2018-06-20T07:18:35.909Z,25.50
2018-06-20T07:21:03.506Z,25.50
2018-06-20T07:23:31.046Z,25.40
2018-06-20T07:25:58.682Z,25.50
2018-06-20T07:28:26.226Z,25.70
2018-06-20T07:30:53.786Z,26.00
2018-06-20T07:33:21.308Z,25.40
2018-06-20T07:35:48.823Z,25.70
2018-06-20T07:38:16.354Z,26.10
2018-06-20T07:40:43.893Z,26.10
2018-06-20T07:43:11.471Z,26.10
2018-06-20T07:45:39.015Z,26.50
2018-06-20T07:48:06.567Z,25.80
2018-06-20T07:50:34.085Z,25.80
2018-06-20T07:53:01.769Z,26.50
2018-06-20T07:55:29.291Z,26.60
2018-06-20T07:57:56.855Z,27.00
2018-06-20T08:00:30.303Z,27.00
2018-06-20T08:03:16.454Z,27.00
2018-06-20T08:08:23.826Z,27.40
2018-06-20T08:10:57.208Z,27.30
2018-06-20T08:13:30.754Z,27.10
2018-06-20T08:16:04.087Z,26.90
2018-06-20T08:18:37.411Z,27.50
2018-06-20T08:21:05.239Z,27.60
2018-06-20T08:23:32.773Z,28.10
2018-06-20T08:26:00.576Z,27.90
2018-06-20T08:28:28.335Z,27.70
2018-06-20T08:30:55.879Z,26.80
2018-06-20T08:35:51.238Z,27.40
2018-06-20T08:38:18.758Z,27.30
2018-06-20T08:40:46.441Z,27.20
2018-06-20T08:43:13.995Z,27.20
2018-06-20T08:45:41.527Z,27.20
2018-06-20T08:48:09.054Z,27.20
2018-06-20T08:50:36.613Z,26.90
2018-06-20T08:53:04.245Z,26.80
2018-06-20T08:55:31.782Z,26.80
2018-06-20T08:57:59.311Z,26.90
2018-06-20T09:00:32.674Z,26.90
2018-06-20T09:03:00.196Z,26.90
2018-06-20T09:05:33.548Z,27.20
2018-06-20T09:08:06.926Z,27.60
2018-06-20T09:10:40.259Z,27.80
2018-06-20T09:13:13.505Z,27.50
2018-06-20T09:15:46.798Z,27.00
2018-06-20T09:18:20.314Z,27.00
2018-06-20T09:20:47.914Z,26.80
2018-06-20T09:23:15.435Z,27.40
2018-06-20T09:25:43.170Z,27.20
2018-06-20T09:28:10.695Z,27.60
2018-06-20T09:30:38.396Z,28.10
2018-06-20T09:33:05.948Z,28.20
2018-06-20T09:35:33.718Z,28.40
2018-06-20T09:38:01.262Z,28.20
2018-06-20T09:40:28.983Z,28.10
2018-06-20T09:42:56.509Z,27.80
2018-06-20T09:45:24.274Z,27.80
2018-06-20T09:47:51.801Z,28.40
2018-06-20T09:50:25.132Z,29.50
2018-06-20T09:52:52.793Z,30.10
2018-06-20T09:55:20.468Z,30.30
2018-06-20T09:57:48.048Z,29.40
2018-06-20T10:00:21.463Z,29.50
2018-06-20T10:02:54.789Z,28.80
2018-06-20T10:05:28.015Z,27.90
2018-06-20T10:08:01.303Z,27.70
2018-06-20T10:10:34.593Z,27.10
2018-06-20T10:13:07.865Z,27.10
2018-06-20T10:15:36.149Z,27.80
2018-06-20T10:20:31.520Z,29.50
2018-06-20T10:22:59.862Z,29.60
2018-06-20T10:25:28.162Z,30.00
2018-06-20T10:27:56.110Z,30.10
2018-06-20T10:30:24.076Z,29.80
2018-06-20T10:32:51.851Z,29.60
2018-06-20T10:35:19.702Z,29.90
2018-06-20T10:37:47.470Z,30.00
2018-06-20T10:40:15.155Z,30.30
2018-06-20T10:42:42.741Z,30.60
2018-06-20T10:46:20.126Z,30.60
2018-06-20T10:48:47.672Z,30.70
2018-06-20T10:51:15.295Z,30.20
2018-06-20T10:53:42.920Z,30.00
2018-06-20T10:56:10.599Z,29.60
2018-06-20T10:59:41.901Z,29.90
2018-06-20T11:02:15.141Z,30.00
2018-06-20T11:04:48.528Z,30.20
2018-06-20T11:07:21.935Z,30.50
2018-06-20T11:09:55.165Z,30.70
2018-06-20T11:12:28.513Z,30.70
2018-06-20T11:14:56.090Z,30.40
2018-06-20T11:17:23.650Z,30.00
2018-06-20T11:19:51.234Z,29.70
2018-06-20T11:22:18.825Z,29.70
2018-06-20T11:24:46.390Z,30.30
2018-06-20T11:27:13.934Z,30.20
2018-06-20T11:29:41.494Z,30.10
2018-06-20T11:32:09.018Z,30.60
2018-06-20T11:34:36.561Z,30.40
2018-06-20T11:37:04.433Z,30.40
2018-06-20T11:39:32.068Z,30.60
2018-06-20T11:41:59.681Z,30.20
2018-06-20T11:44:27.285Z,30.60
2018-06-20T11:47:00.699Z,31.40
2018-06-20T11:49:28.258Z,31.80
2018-06-20T11:51:55.899Z,32.10
2018-06-20T11:54:23.439Z,31.30
2018-06-20T11:56:50.993Z,31.70
2018-06-20T11:59:24.383Z,32.60
2018-06-20T12:01:57.925Z,33.70
2018-06-20T12:04:31.237Z,35.00
2018-06-20T12:07:04.551Z,37.20
2018-06-20T12:09:38.017Z,38.50
2018-06-20T12:12:11.314Z,40.40
2018-06-20T12:14:44.804Z,40.60
2018-06-20T12:17:11.994Z,40.60
2018-06-20T12:19:46.296Z,40.20
2018-06-20T12:22:19.765Z,40.10
2018-06-20T12:24:53.269Z,42.50
2018-06-20T12:27:26.813Z,42.40
2018-06-20T12:30:00.056Z,41.30
2018-06-20T12:32:33.369Z,38.80
2018-06-20T12:35:06.634Z,37.00
2018-06-20T12:37:39.943Z,35.00
2018-06-20T12:40:12.120Z,35.70
2018-06-20T12:42:45.541Z,38.70
2018-06-20T12:45:16.075Z,42.50
2018-06-20T12:47:44.542Z,45.30
2018-06-20T12:50:15.980Z,46.20
2018-06-20T12:52:43.949Z,45.20
2018-06-20T12:55:11.537Z,45.70
2018-06-20T12:57:39.254Z,45.40
2018-06-20T13:00:06.883Z,46.10
2018-06-20T13:02:34.524Z,44.20
2018-06-20T13:05:02.227Z,45.30
2018-06-20T13:07:29.869Z,44.30
2018-06-20T13:09:57.494Z,43.70
2018-06-20T13:12:25.110Z,44.20
2018-06-20T13:14:52.734Z,43.30
2018-06-20T13:17:20.362Z,44.20
2018-06-20T13:19:47.956Z,45.40
2018-06-20T13:22:15.580Z,42.60
2018-06-20T13:24:43.234Z,41.30
2018-06-20T13:27:15.422Z,39.80
2018-06-20T13:29:43.012Z,38.80
2018-06-20T13:32:16.316Z,38.20
2018-06-20T13:34:49.570Z,36.70
2018-06-20T13:37:22.875Z,38.90
2018-06-20T13:39:56.409Z,37.10
2018-06-20T13:43:29.603Z,37.50
2018-06-20T13:46:03.163Z,37.10
2018-06-20T13:48:32.822Z,42.00
2018-06-20T13:51:00.421Z,41.40
2018-06-20T13:53:28.030Z,40.60
2018-06-20T13:55:55.758Z,41.20
2018-06-20T13:58:23.543Z,41.70
2018-06-20T14:00:51.195Z,43.80
2018-06-20T14:03:18.846Z,42.80
2018-06-20T14:05:46.476Z,41.60
2018-06-20T14:08:14.121Z,39.10
2018-06-20T14:10:41.731Z,37.20
2018-06-20T14:13:09.373Z,38.80
2018-06-20T14:15:37.095Z,37.70
2018-06-20T14:18:04.692Z,37.40
2018-06-20T14:23:05.714Z,35.70
2018-06-20T14:25:33.337Z,38.90
2018-06-20T14:28:00.919Z,41.30
2018-06-20T14:30:34.353Z,40.30
2018-06-20T14:33:07.852Z,40.80
2018-06-20T14:38:14.746Z,46.50
2018-06-20T14:40:48.044Z,45.80
2018-06-20T14:45:54.795Z,47.20
2018-06-20T14:48:22.394Z,46.80
2018-06-20T14:50:49.981Z,47.20
2018-06-20T14:53:17.639Z,46.20
2018-06-20T14:55:45.263Z,45.00
2018-06-20T14:58:12.925Z,44.30
2018-06-20T15:00:40.513Z,45.30
2018-06-20T15:05:35.795Z,48.00
2018-06-20T15:08:03.577Z,45.50
2018-06-20T15:10:31.207Z,44.60
2018-06-20T15:12:58.808Z,46.60
2018-06-20T15:15:26.602Z,47.00
2018-06-20T15:17:54.224Z,49.20
2018-06-20T15:20:21.860Z,48.30
2018-06-20T15:22:49.442Z,45.70
2018-06-20T15:25:25.637Z,45.60
2018-06-20T15:29:00.119Z,47.20
2018-06-20T15:31:33.492Z,45.40
2018-06-20T15:34:06.811Z,44.00
2018-06-20T15:36:40.391Z,43.30
2018-06-20T15:39:08.476Z,41.00
2018-06-20T15:41:36.217Z,38.40
2018-06-20T15:44:04.921Z,37.00
2018-06-20T15:46:32.545Z,36.60
2018-06-20T15:49:00.203Z,36.00
2018-06-20T15:51:27.839Z,36.70
2018-06-20T15:53:55.432Z,38.20
2018-06-20T15:56:23.015Z,38.90
2018-06-20T15:58:50.632Z,40.40
2018-06-20T16:01:18.222Z,40.60
2018-06-20T16:03:45.852Z,41.70
2018-06-20T16:06:13.443Z,42.60
2018-06-20T16:08:46.966Z,42.10
2018-06-20T16:11:14.540Z,43.20
2018-06-20T16:13:42.228Z,44.30
2018-06-20T16:16:10.358Z,43.50
2018-06-20T16:18:42.365Z,40.70
2018-06-20T16:21:15.661Z,39.30
2018-06-20T16:23:49.706Z,37.50
2018-06-20T16:26:23.017Z,38.20
2018-06-20T16:28:56.548Z,37.20
2018-06-20T16:31:24.180Z,38.90
2018-06-20T16:33:51.940Z,38.90
2018-06-20T16:36:19.629Z,37.60
2018-06-20T16:38:47.221Z,36.60
2018-06-20T16:41:14.841Z,35.10
2018-06-20T16:43:42.501Z,34.80
2018-06-20T16:46:10.282Z,34.00
2018-06-20T16:48:38.021Z,33.90
2018-06-20T16:51:05.681Z,34.50
2018-06-20T16:53:33.463Z,34.90
2018-06-20T16:56:01.165Z,35.00
2018-06-20T16:58:28.777Z,34.90
2018-06-20T17:01:02.759Z,35.20
2018-06-20T17:03:30.370Z,35.00
2018-06-20T17:05:57.981Z,36.20
2018-06-20T17:08:25.590Z,36.60
2018-06-20T17:10:53.230Z,36.90
2018-06-20T17:13:26.588Z,36.60
2018-06-20T17:15:59.839Z,36.00
2018-06-20T17:18:33.421Z,35.60
2018-06-20T17:21:07.156Z,35.30
2018-06-20T17:23:40.435Z,34.50
2018-06-20T17:26:08.107Z,33.00
2018-06-20T17:28:35.808Z,32.00
2018-06-20T17:31:03.463Z,31.80
2018-06-20T17:33:31.099Z,31.90
2018-06-20T17:35:58.845Z,31.50
2018-06-20T17:38:26.524Z,31.80
2018-06-20T17:40:54.161Z,31.70
2018-06-20T17:43:28.024Z,31.70
2018-06-20T17:45:55.718Z,32.70
2018-06-20T17:48:23.441Z,32.80
2018-06-20T17:50:51.058Z,32.60
2018-06-20T17:53:18.742Z,32.20
2018-06-20T17:55:46.481Z,32.00
2018-06-20T17:58:14.168Z,31.70
2018-06-20T18:00:47.620Z,31.80
2018-06-20T18:03:15.286Z,31.40
2018-06-20T18:05:48.810Z,32.10
2018-06-20T18:08:22.389Z,33.40
2018-06-20T18:13:29.133Z,35.50
2018-06-20T18:16:02.567Z,36.70
2018-06-20T18:18:30.201Z,36.10
2018-06-20T18:20:57.841Z,35.00
2018-06-20T18:23:25.488Z,33.50
2018-06-20T18:25:53.153Z,33.00
2018-06-20T18:28:20.910Z,32.20
2018-06-20T18:30:48.625Z,31.40
2018-06-20T18:33:16.281Z,30.60
2018-06-20T18:35:43.891Z,30.20
2018-06-20T18:38:11.806Z,30.20
2018-06-20T18:40:39.516Z,29.70
2018-06-20T18:43:07.139Z,29.40
2018-06-20T18:45:34.789Z,29.40
2018-06-20T18:48:08.367Z,29.30
2018-06-20T18:50:36.615Z,29.10
2018-06-20T18:53:04.310Z,28.90
2018-06-20T18:55:31.932Z,28.80
2018-06-20T18:58:05.424Z,28.60
2018-06-20T19:00:39.016Z,28.30
2018-06-20T19:03:12.542Z,28.20
2018-06-20T19:05:45.997Z,27.90
2018-06-20T19:08:19.554Z,27.70
2018-06-20T19:10:47.257Z,27.40
2018-06-20T19:13:15.222Z,27.30
2018-06-20T19:15:43.113Z,27.10
2018-06-20T19:18:11.073Z,27.00
2018-06-20T19:20:38.771Z,26.90
2018-06-20T19:23:06.439Z,26.70
2018-06-20T19:25:34.108Z,26.60
2018-06-20T19:28:01.775Z,26.50
2018-06-20T19:30:29.459Z,26.30
2018-06-20T19:32:57.165Z,26.30
2018-06-20T19:35:24.994Z,26.20
2018-06-20T19:37:52.765Z,26.10
2018-06-20T19:40:20.358Z,25.90
2018-06-20T19:42:48.046Z,25.80
2018-06-20T19:45:15.647Z,25.70
2018-06-20T19:47:43.365Z,25.60
2018-06-20T19:50:11.000Z,25.50
2018-06-20T19:52:38.676Z,25.40
2018-06-20T19:55:06.451Z,25.40
2018-06-20T19:57:34.210Z,25.30
2018-06-20T20:00:01.852Z,25.30
2018-06-20T20:02:30.251Z,25.30
2018-06-20T20:04:57.886Z,25.20
2018-06-20T20:07:25.609Z,25.10
2018-06-20T20:09:53.552Z,25.10
2018-06-20T20:12:21.388Z,25.00
2018-06-20T20:14:49.058Z,24.90
2018-06-20T20:17:16.737Z,24.80
2018-06-20T20:19:44.405Z,24.70
2018-06-20T20:22:12.010Z,24.70
2018-06-20T20:24:39.627Z,24.60
2018-06-20T20:27:07.227Z,24.50
2018-06-20T20:29:34.898Z,24.50
2018-06-20T20:32:02.582Z,24.50
2018-06-20T20:34:30.417Z,24.50
2018-06-20T20:36:58.065Z,24.50
2018-06-20T20:39:25.846Z,24.50
2018-06-20T20:41:53.448Z,24.50
2018-06-20T20:44:21.186Z,24.50
2018-06-20T20:46:48.867Z,24.40
2018-06-20T20:49:16.636Z,24.40
2018-06-20T20:51:44.437Z,24.40
2018-06-20T20:54:12.138Z,24.40
2018-06-20T20:56:39.856Z,24.30
2018-06-20T20:59:07.590Z,24.30
2018-06-20T21:01:35.215Z,24.30
2018-06-20T21:04:02.840Z,24.30
2018-06-20T21:06:30.637Z,24.30
2018-06-20T21:08:58.315Z,24.20
2018-06-20T21:11:29.908Z,24.20
2018-06-20T21:13:57.887Z,24.10
2018-06-20T21:16:25.526Z,24.10
2018-06-20T21:18:53.490Z,24.10
2018-06-20T21:21:21.126Z,24.10
2018-06-20T21:23:48.808Z,24.00
2018-06-20T21:26:16.467Z,24.00
2018-06-20T21:28:44.129Z,24.00
2018-06-20T21:31:11.758Z,24.00
2018-06-20T21:33:39.448Z,24.00
2018-06-20T21:36:07.111Z,23.90
2018-06-20T21:38:35.032Z,23.90
2018-06-20T21:41:02.642Z,23.90
2018-06-20T21:43:30.264Z,23.90
2018-06-20T21:45:57.907Z,23.90
2018-06-20T21:48:25.572Z,23.90
2018-06-20T21:50:53.241Z,23.90
2018-06-20T21:53:20.919Z,23.80
2018-06-20T21:55:48.546Z,23.90
2018-06-20T21:58:16.235Z,23.90
2018-06-20T22:00:45.535Z,23.90
2018-06-20T22:03:13.206Z,23.80
2018-06-20T22:05:40.869Z,23.80
2018-06-20T22:08:08.516Z,23.90
2018-06-20T22:10:36.123Z,23.80
2018-06-20T22:13:03.722Z,23.90
2018-06-20T22:15:31.400Z,23.90
2018-06-20T22:17:59.094Z,23.80
2018-06-20T22:20:26.825Z,23.90
2018-06-20T22:22:54.465Z,23.90
2018-06-20T22:25:22.092Z,23.80
2018-06-20T22:27:49.753Z,23.90
2018-06-20T22:30:17.392Z,23.90
2018-06-20T22:32:45.048Z,23.90
2018-06-20T22:35:12.731Z,23.80
2018-06-20T22:37:40.377Z,23.80
2018-06-20T22:40:07.982Z,23.80
2018-06-20T22:42:35.538Z,23.70
2018-06-20T22:45:03.293Z,23.80
2018-06-20T22:47:31.188Z,23.70
2018-06-20T22:49:58.816Z,23.70
2018-06-20T22:52:26.488Z,23.70
2018-06-20T22:54:54.175Z,23.70
2018-06-20T22:57:21.806Z,23.60
2018-06-20T22:59:49.390Z,23.70
2018-06-20T23:02:17.029Z,23.70
2018-06-20T23:04:44.660Z,23.70
2018-06-20T23:09:40.768Z,23.60
2018-06-20T23:12:08.356Z,23.70
2018-06-20T23:14:35.934Z,23.70
2018-06-20T23:17:03.630Z,23.70
2018-06-20T23:19:31.213Z,23.70
2018-06-20T23:21:58.817Z,23.70
2018-06-20T23:24:26.477Z,23.70
2018-06-20T23:26:54.067Z,23.70
2018-06-20T23:29:21.723Z,23.60
2018-06-20T23:31:49.320Z,23.60
2018-06-20T23:34:16.911Z,23.60
2018-06-20T23:36:44.540Z,23.60
2018-06-20T23:39:12.131Z,23.50
2018-06-20T23:41:39.742Z,23.50
2018-06-20T23:44:07.364Z,23.30
2018-06-20T23:49:02.816Z,23.20
2018-06-20T23:51:30.444Z,23.10
2018-06-20T23:53:58.076Z,23.00
2018-06-20T23:56:25.670Z,22.90
